createdAt,value
2022-09-09T00:00:24.278Z,51.156151
2022-09-09T00:01:24.177Z,51.156132
2022-09-09T00:02:24.315Z,51.156147
2022-09-09T00:03:24.291Z,51.156124
2022-09-09T00:04:24.270Z,51.156113
2022-09-09T00:05:24.281Z,51.156090
2022-09-09T00:06:24.186Z,51.156090
2022-09-09T00:08:10.079Z,51.156071
2022-09-09T00:08:24.496Z,51.156082
2022-09-09T00:09:24.310Z,51.156078
2022-09-09T00:10:57.844Z,51.156090
2022-09-09T00:11:56.804Z,51.156082
2022-09-09T00:12:59.270Z,51.156101
2022-09-09T00:13:56.647Z,51.156120
2022-09-09T00:49:08.484Z,51.156387
2022-09-09T00:50:08.514Z,51.156189
2022-09-09T00:51:08.407Z,51.155964
2022-09-09T00:52:08.464Z,51.156136
2022-09-09T00:53:08.383Z,51.156197
2022-09-09T00:54:08.321Z,51.156078
2022-09-09T00:55:08.339Z,51.156120
2022-09-09T00:56:08.355Z,51.156178
2022-09-09T00:57:08.311Z,51.156116
2022-09-09T00:58:08.343Z,51.156208
2022-09-09T00:59:08.246Z,51.156086
2022-09-09T01:00:08.257Z,51.156063
2022-09-09T01:01:08.346Z,51.156040
2022-09-09T01:02:08.258Z,51.156071
2022-09-09T01:03:08.227Z,51.156067
2022-09-09T01:04:08.285Z,51.156052
2022-09-09T01:05:08.187Z,51.156090
2022-09-09T01:06:08.160Z,51.156204
2022-09-09T01:07:08.226Z,51.156036
2022-09-09T01:08:08.112Z,51.156136
2022-09-09T01:09:08.165Z,51.156185
2022-09-09T01:10:08.184Z,51.156094
2022-09-09T01:11:08.123Z,51.156021
2022-09-09T01:12:08.147Z,51.156113
2022-09-09T01:13:08.095Z,51.156185
2022-09-09T01:14:08.096Z,51.156086
2022-09-09T01:15:08.081Z,51.156055
2022-09-09T01:16:08.084Z,51.156044
2022-09-09T01:17:08.056Z,51.156063
2022-09-09T01:18:08.049Z,51.156078
2022-09-09T01:19:08.119Z,51.156181
2022-09-09T01:20:08.037Z,51.156124
2022-09-09T01:21:08.141Z,51.156090
2022-09-09T01:22:08.053Z,51.156082
2022-09-09T01:23:07.999Z,51.156086
2022-09-09T01:24:08.042Z,51.156082
2022-09-09T01:25:08.054Z,51.156082
2022-09-09T01:26:08.034Z,51.156204
2022-09-09T01:27:08.029Z,51.156178
2022-09-09T01:28:07.993Z,51.156097
2022-09-09T01:29:08.075Z,51.156086
2022-09-09T01:30:08.028Z,51.156059
2022-09-09T01:31:07.954Z,51.156086
2022-09-09T01:32:07.990Z,51.156052
2022-09-09T01:33:07.893Z,51.156075
2022-09-09T01:34:07.932Z,51.156086
2022-09-09T01:35:07.918Z,51.156067
2022-09-09T01:36:07.884Z,51.156071
2022-09-09T01:37:07.904Z,51.156086
2022-09-09T01:38:07.880Z,51.156055
2022-09-09T01:39:07.934Z,51.156063
2022-09-09T01:40:07.891Z,51.156075
2022-09-09T01:41:07.890Z,51.156071
2022-09-09T01:42:07.792Z,51.156094
2022-09-09T01:43:07.838Z,51.156052
2022-09-09T01:44:07.800Z,51.156090
2022-09-09T01:45:07.834Z,51.156078
2022-09-09T01:46:07.833Z,51.156120
2022-09-09T01:47:07.821Z,51.156113
2022-09-09T01:48:07.807Z,51.156113
2022-09-09T01:49:07.832Z,51.156086
2022-09-09T01:50:07.918Z,51.156055
2022-09-09T01:51:07.802Z,51.156044
2022-09-09T01:52:07.739Z,51.156078
2022-09-09T01:53:07.823Z,51.156052
2022-09-09T01:54:07.813Z,51.156067
2022-09-09T01:55:07.758Z,51.156055
2022-09-09T01:56:07.769Z,51.156036
2022-09-09T01:57:07.682Z,51.156010
2022-09-09T01:58:07.678Z,51.156078
2022-09-09T01:59:07.746Z,51.156086
2022-09-09T02:00:07.638Z,51.156090
2022-09-09T02:01:07.724Z,51.156132
2022-09-09T02:02:07.675Z,51.156082
2022-09-09T02:03:07.674Z,51.156132
2022-09-09T02:04:07.612Z,51.156139
2022-09-09T02:05:07.659Z,51.156071
2022-09-09T02:06:07.667Z,51.156067
2022-09-09T02:07:07.583Z,51.156063
2022-09-09T02:08:07.593Z,51.156071
2022-09-09T02:09:07.602Z,51.156082
2022-09-09T02:10:07.604Z,51.156025
2022-09-09T02:11:07.702Z,51.156013
2022-09-09T02:12:07.550Z,51.155994
2022-09-09T02:13:07.499Z,51.156013
2022-09-09T02:14:07.630Z,51.156078
2022-09-09T02:15:07.536Z,51.156094
2022-09-09T02:16:07.518Z,51.156055
2022-09-09T02:17:07.510Z,51.156013
2022-09-09T02:18:07.499Z,51.156071
2022-09-09T02:19:07.515Z,51.156155
2022-09-09T02:20:07.490Z,51.156071
2022-09-09T02:21:07.505Z,51.156002
2022-09-09T02:22:07.556Z,51.156033
2022-09-09T02:23:07.566Z,51.156059
2022-09-09T02:24:07.417Z,51.156109
2022-09-09T02:25:07.535Z,51.156075
2022-09-09T02:26:07.408Z,51.156052
2022-09-09T02:27:07.447Z,51.156052
2022-09-09T02:28:07.372Z,51.156055
2022-09-09T02:29:07.528Z,51.156059
2022-09-09T02:30:07.412Z,51.156078
2022-09-09T02:31:07.482Z,51.156082
2022-09-09T02:32:07.405Z,51.156075
2022-09-09T02:49:59.020Z,51.156113
2022-09-09T02:50:58.968Z,51.156128
2022-09-09T02:51:58.814Z,51.156101
2022-09-09T02:52:58.834Z,51.156097
2022-09-09T02:53:58.796Z,51.156090
2022-09-09T02:54:58.769Z,51.156090
2022-09-09T02:55:58.938Z,51.156101
2022-09-09T02:56:58.731Z,51.156078
2022-09-09T02:57:58.739Z,51.156071
2022-09-09T02:58:58.796Z,51.156086
2022-09-09T03:51:44.724Z,51.156025
2022-09-09T05:36:59.766Z,51.156120
2022-09-09T05:37:59.493Z,51.156109
2022-09-09T05:38:59.430Z,51.156094
2022-09-09T05:39:59.451Z,51.156101
2022-09-09T05:40:59.417Z,51.156124
2022-09-09T06:26:42.437Z,51.156124
2022-09-09T06:27:42.190Z,51.156120
2022-09-09T06:28:42.303Z,51.156132
2022-09-09T06:29:42.236Z,51.156132
2022-09-09T06:30:41.982Z,51.156105
2022-09-09T06:31:42.097Z,51.156097
2022-09-09T06:32:42.243Z,51.156113
2022-09-09T06:33:42.100Z,51.156181
2022-09-09T06:51:24.845Z,51.156136
2022-09-09T06:52:24.696Z,51.156170
2022-09-09T06:53:24.536Z,51.156143
2022-09-09T06:54:24.580Z,51.156124
2022-09-09T06:55:24.515Z,51.156147
2022-09-09T06:56:24.603Z,51.156143
2022-09-09T06:57:37.014Z,51.156136
2022-09-09T06:58:26.493Z,51.156101
2022-09-09T06:59:24.401Z,51.156090
2022-09-09T07:00:24.469Z,51.156086
2022-09-09T07:01:24.487Z,51.156017
2022-09-09T07:02:25.027Z,51.156013
2022-09-09T07:03:24.415Z,51.156044
2022-09-09T07:04:24.467Z,51.156055
2022-09-09T07:05:24.389Z,51.155918
2022-09-09T07:06:24.511Z,51.155930
2022-09-09T07:07:24.475Z,51.155907
2022-09-09T07:08:24.606Z,51.155933
2022-09-09T07:09:24.418Z,51.155979
2022-09-09T07:10:24.314Z,51.155861
2022-09-09T07:11:24.758Z,51.155857
2022-09-09T07:12:24.399Z,51.155811
2022-09-09T07:13:24.501Z,51.155697
2022-09-09T07:14:24.306Z,51.155582
2022-09-09T07:15:24.356Z,51.155441
2022-09-09T07:16:24.480Z,51.155437
2022-09-09T07:17:24.357Z,51.155437
2022-09-09T07:18:24.256Z,51.155437
2022-09-09T07:19:56.875Z,51.155972
2022-09-09T07:20:24.552Z,51.156071
2022-09-09T07:21:57.866Z,51.156059
2022-09-09T07:22:24.424Z,51.156109
2022-09-09T07:23:24.474Z,51.156040
2022-09-09T07:24:24.270Z,51.156151
2022-09-09T07:25:24.222Z,51.156139
2022-09-09T07:26:24.268Z,51.156155
2022-09-09T07:27:24.218Z,51.156059
2022-09-09T07:28:24.200Z,51.156052
2022-09-09T07:29:24.249Z,51.156086
2022-09-09T07:30:27.576Z,51.156193
2022-09-09T07:31:25.191Z,51.156139
2022-09-09T07:32:24.162Z,51.156124
2022-09-09T07:33:24.105Z,51.156162
2022-09-09T07:34:24.135Z,51.156178
2022-09-09T07:35:24.105Z,51.156139
2022-09-09T07:36:24.128Z,51.156113
2022-09-09T07:37:24.085Z,51.156147
2022-09-09T07:38:24.085Z,51.156113
2022-09-09T07:39:24.092Z,51.156120
2022-09-09T07:40:24.088Z,51.156059
2022-09-09T07:41:24.079Z,51.156063
2022-09-09T07:42:24.047Z,51.156075
2022-09-09T07:43:24.045Z,51.156109
2022-09-09T07:44:24.023Z,51.156101
2022-09-09T07:45:23.989Z,51.156109
2022-09-09T07:46:24.076Z,51.156040
2022-09-09T07:47:24.049Z,51.155987
2022-09-09T07:48:23.982Z,51.156067
2022-09-09T07:49:29.661Z,51.156086
2022-09-09T07:50:24.999Z,51.156139
2022-09-09T07:51:23.946Z,51.156059
2022-09-09T07:59:38.276Z,51.155979
2022-09-09T08:00:38.240Z,51.156181
2022-09-09T08:09:33.495Z,51.156105
2022-09-09T08:10:33.348Z,51.156071
2022-09-09T08:11:38.067Z,51.156101
2022-09-09T08:12:36.363Z,51.156219
2022-09-09T08:14:05.701Z,51.156136
2022-09-09T08:14:33.317Z,51.156109
2022-09-09T08:15:33.390Z,51.156094
2022-09-09T08:16:33.301Z,51.156040
2022-09-09T08:47:07.467Z,51.156658
2022-09-09T08:48:07.461Z,51.156273
2022-09-09T08:49:07.454Z,51.156387
2022-09-09T08:50:07.424Z,51.156410
2022-09-09T08:51:07.401Z,51.156143
2022-09-09T08:52:07.441Z,51.156082
2022-09-09T08:53:07.375Z,51.156120
2022-09-09T08:54:07.427Z,51.155811
2022-09-09T08:55:07.356Z,51.155811
2022-09-09T08:56:07.576Z,51.155930
2022-09-09T08:57:07.352Z,51.156292
2022-09-09T08:58:07.356Z,51.156517
2022-09-09T08:59:07.412Z,51.156597
2022-09-09T09:00:07.321Z,51.156116
2022-09-09T09:10:52.986Z,51.156097
2022-09-09T09:11:53.004Z,51.156067
2022-09-09T09:12:52.940Z,51.156101
2022-09-09T09:13:53.017Z,51.156082
2022-09-09T09:14:52.980Z,51.156094
2022-09-09T09:15:52.992Z,51.156116
2022-09-09T09:16:52.995Z,51.156124
2022-09-09T09:17:52.887Z,51.156124
2022-09-09T09:18:52.894Z,51.156097
2022-09-09T09:19:52.909Z,51.156094
2022-09-09T09:20:52.966Z,51.156113
2022-09-09T09:21:52.888Z,51.156094
2022-09-09T09:22:52.899Z,51.156086
2022-09-09T09:23:52.871Z,51.156090
2022-09-09T09:24:52.842Z,51.156094
2022-09-09T09:25:52.823Z,51.156082
2022-09-09T09:26:52.819Z,51.156086
2022-09-09T09:27:52.869Z,51.156055
2022-09-09T09:28:52.860Z,51.156059
2022-09-09T09:30:21.167Z,51.156078
2022-09-09T09:30:54.931Z,51.156136
2022-09-09T09:31:52.772Z,51.156036
2022-09-09T09:32:52.773Z,51.156067
2022-09-09T09:33:52.742Z,51.156048
2022-09-09T09:34:52.734Z,51.156052
2022-09-09T09:35:52.807Z,51.156101
2022-09-09T09:36:53.100Z,51.156094
2022-09-09T09:40:54.679Z,51.156101
2022-09-09T09:41:52.723Z,51.156139
2022-09-09T09:42:52.751Z,51.156090
2022-09-09T09:43:52.655Z,51.156105
2022-09-09T09:44:52.663Z,51.156086
2022-09-09T09:46:07.209Z,51.156105
2022-09-09T09:46:54.694Z,51.156105
2022-09-09T09:47:56.881Z,51.156063
2022-09-09T09:48:54.671Z,51.156105
2022-09-09T09:49:52.601Z,51.156059
2022-09-09T09:50:52.609Z,51.156075
2022-09-09T09:51:52.588Z,51.156097
2022-09-09T09:52:52.683Z,51.156094
2022-09-09T09:53:52.555Z,51.156094
2022-09-09T09:54:53.567Z,51.156086
2022-09-09T09:55:52.569Z,51.156105
2022-09-09T09:56:52.567Z,51.156097
2022-09-09T09:57:52.608Z,51.156105
2022-09-09T09:58:52.497Z,51.156036
2022-09-09T09:59:52.491Z,51.156090
2022-09-09T10:00:52.534Z,51.156120
2022-09-09T10:01:52.511Z,51.156090
2022-09-09T10:02:52.505Z,51.156120
2022-09-09T10:03:52.418Z,51.156113
2022-09-09T10:04:52.512Z,51.156075
2022-09-09T10:05:52.480Z,51.156090
2022-09-09T10:06:52.440Z,51.156082
2022-09-09T10:07:52.382Z,51.156097
2022-09-09T10:08:52.404Z,51.156116
2022-09-09T10:09:52.422Z,51.156124
2022-09-09T10:10:52.376Z,51.156128
2022-09-09T10:11:52.408Z,51.156113
2022-09-09T10:12:52.388Z,51.156101
2022-09-09T10:13:52.402Z,51.156113
2022-09-09T10:14:52.367Z,51.156105
2022-09-09T10:15:52.388Z,51.156101
2022-09-09T10:16:52.301Z,51.156090
2022-09-09T10:17:52.332Z,51.156090
2022-09-09T10:18:52.294Z,51.156094
2022-09-09T10:19:52.286Z,51.156094
2022-09-09T10:20:52.311Z,51.156090
2022-09-09T10:21:52.285Z,51.156094
2022-09-09T10:22:52.279Z,51.156155
2022-09-09T10:23:52.255Z,51.156094
2022-09-09T10:24:52.224Z,51.156082
2022-09-09T10:25:52.288Z,51.156075
2022-09-09T10:26:52.231Z,51.156063
2022-09-09T10:27:57.045Z,51.156078
2022-09-09T10:28:54.253Z,51.156044
2022-09-09T10:29:52.185Z,51.155987
2022-09-09T10:30:52.257Z,51.156090
2022-09-09T10:31:52.208Z,51.156071
2022-09-09T10:32:52.161Z,51.156067
2022-09-09T10:33:52.139Z,51.156097
2022-09-09T10:34:52.148Z,51.156105
2022-09-09T10:35:52.150Z,51.156174
2022-09-09T10:36:52.190Z,51.156193
2022-09-09T10:37:52.120Z,51.156105
2022-09-09T10:38:52.127Z,51.156109
2022-09-09T10:39:52.138Z,51.156101
2022-09-09T10:40:52.045Z,51.156105
2022-09-09T10:41:52.051Z,51.156105
2022-09-09T10:42:52.118Z,51.156120
2022-09-09T10:43:52.053Z,51.156055
2022-09-09T10:44:52.052Z,51.156132
2022-09-09T10:45:52.088Z,51.156059
2022-09-09T10:46:52.041Z,51.156029
2022-09-09T10:47:52.017Z,51.156059
2022-09-09T10:48:51.990Z,51.156044
2022-09-09T10:49:52.004Z,51.156075
2022-09-09T10:51:07.421Z,51.156040
2022-09-09T10:51:54.044Z,51.156059
2022-09-09T10:52:51.972Z,51.156075
2022-09-09T10:53:51.947Z,51.156086
2022-09-09T10:54:51.923Z,51.156071
2022-09-09T10:55:52.900Z,51.156097
2022-09-09T10:56:51.994Z,51.156094
2022-09-09T10:57:51.946Z,51.156082
2022-09-09T10:58:51.913Z,51.156082
2022-09-09T10:59:51.874Z,51.156071
2022-09-09T11:00:56.100Z,51.156059
2022-09-09T11:01:53.938Z,51.156086
2022-09-09T11:02:51.861Z,51.156082
2022-09-09T11:03:51.887Z,51.156090
2022-09-09T11:04:51.835Z,51.156086
2022-09-09T11:05:51.831Z,51.156105
2022-09-09T11:06:51.846Z,51.156082
2022-09-09T11:07:51.839Z,51.156128
2022-09-09T11:08:55.036Z,51.156101
2022-09-09T11:09:52.805Z,51.156082
2022-09-09T11:10:51.793Z,51.156078
2022-09-09T11:11:51.774Z,51.156113
2022-09-09T11:12:51.775Z,51.156090
2022-09-09T11:13:51.768Z,51.156086
2022-09-09T11:14:51.767Z,51.156170
2022-09-09T11:15:51.755Z,51.156139
2022-09-09T11:16:51.757Z,51.156097
2022-09-09T11:17:51.738Z,51.156101
2022-09-09T11:18:51.689Z,51.156078
2022-09-09T11:19:51.718Z,51.156120
2022-09-09T11:20:51.652Z,51.156082
2022-09-09T11:21:51.691Z,51.156071
2022-09-09T11:22:51.710Z,51.156052
2022-09-09T11:23:51.757Z,51.156071
2022-09-09T11:24:51.628Z,51.156097
2022-09-09T11:25:51.709Z,51.156113
2022-09-09T11:26:51.637Z,51.156075
2022-09-09T11:27:51.612Z,51.156090
2022-09-09T11:28:51.599Z,51.156116
2022-09-09T11:29:51.622Z,51.156105
2022-09-09T11:30:56.483Z,51.156128
2022-09-09T11:31:53.531Z,51.156155
2022-09-09T11:32:51.618Z,51.156109
2022-09-09T11:33:51.550Z,51.156124
2022-09-09T11:34:51.539Z,51.156139
2022-09-09T11:35:51.534Z,51.156124
2022-09-09T11:36:51.541Z,51.156086
2022-09-09T11:37:51.504Z,51.156097
2022-09-09T11:38:51.521Z,51.156090
2022-09-09T11:39:51.531Z,51.156094
2022-09-09T11:40:51.496Z,51.156109
2022-09-09T11:41:51.433Z,51.156105
2022-09-09T11:42:51.486Z,51.156105
2022-09-09T11:43:51.442Z,51.156113
2022-09-09T11:44:51.514Z,51.156105
2022-09-09T11:45:51.503Z,51.156097
2022-09-09T11:46:51.422Z,51.156105
2022-09-09T11:47:51.453Z,51.156097
2022-09-09T11:48:51.397Z,51.156113
2022-09-09T11:49:51.391Z,51.156094
2022-09-09T11:50:51.440Z,51.156094
2022-09-09T11:51:51.372Z,51.156124
2022-09-09T11:52:51.419Z,51.156120
2022-09-09T11:53:51.346Z,51.156113
2022-09-09T11:54:51.345Z,51.156113
2022-09-09T11:55:51.366Z,51.156120
2022-09-09T11:56:51.313Z,51.156101
2022-09-09T11:57:51.404Z,51.156097
2022-09-09T11:58:51.535Z,51.156082
2022-09-09T11:59:51.272Z,51.156078
2022-09-09T12:00:51.317Z,51.156116
2022-09-09T12:01:51.300Z,51.156124
2022-09-09T12:02:51.283Z,51.156071
2022-09-09T12:03:51.373Z,51.156116
2022-09-09T12:04:51.310Z,51.156094
2022-09-09T12:05:51.271Z,51.156120
2022-09-09T12:06:51.241Z,51.156128
2022-09-09T12:07:51.298Z,51.156116
2022-09-09T12:08:51.312Z,51.156113
2022-09-09T12:09:51.184Z,51.156105
2022-09-09T12:10:51.153Z,51.156105
2022-09-09T12:11:51.183Z,51.156097
2022-09-09T12:12:51.173Z,51.156097
2022-09-09T12:13:51.167Z,51.156097
2022-09-09T12:14:51.167Z,51.156116
2022-09-09T12:15:51.175Z,51.156113
2022-09-09T12:16:51.182Z,51.156071
2022-09-09T12:17:51.146Z,51.156082
2022-09-09T12:18:51.102Z,51.156101
2022-09-09T12:19:51.167Z,51.156090
2022-09-09T12:20:51.082Z,51.156109
2022-09-09T12:21:51.115Z,51.156109
2022-09-09T12:22:51.035Z,51.156097
2022-09-09T12:23:51.041Z,51.156124
2022-09-09T12:24:51.033Z,51.156158
2022-09-09T12:25:51.100Z,51.156124
2022-09-09T12:26:51.032Z,51.156109
2022-09-09T12:27:51.004Z,51.156116
2022-09-09T12:28:51.073Z,51.156143
2022-09-09T12:29:50.969Z,51.156136
2022-09-09T12:30:51.056Z,51.156128
2022-09-09T12:31:50.943Z,51.156113
2022-09-09T12:32:51.031Z,51.156094
2022-09-09T12:33:50.967Z,51.156090
2022-09-09T12:34:50.950Z,51.156090
2022-09-09T12:35:50.952Z,51.156109
2022-09-09T12:36:53.864Z,51.156124
2022-09-09T12:37:51.928Z,51.156120
2022-09-09T12:38:50.909Z,51.156105
2022-09-09T12:39:50.925Z,51.156109
2022-09-09T12:40:50.879Z,51.156090
2022-09-09T12:41:50.894Z,51.156113
2022-09-09T12:42:50.870Z,51.156063
2022-09-09T12:43:50.806Z,51.156208
2022-09-09T12:44:50.862Z,51.156116
2022-09-09T12:45:50.930Z,51.156082
2022-09-09T12:46:50.797Z,51.156082
2022-09-09T12:47:51.843Z,51.156101
2022-09-09T12:48:50.799Z,51.156086
2022-09-09T12:49:50.814Z,51.156075
2022-09-09T12:50:50.763Z,51.156086
2022-09-09T12:51:50.778Z,51.156078
2022-09-09T12:52:50.779Z,51.156120
2022-09-09T12:53:50.714Z,51.156082
2022-09-09T12:54:50.760Z,51.156067
2022-09-09T12:55:50.718Z,51.156063
2022-09-09T12:56:50.866Z,51.156059
2022-09-09T12:57:50.747Z,51.156055
2022-09-09T12:58:50.879Z,51.156071
2022-09-09T12:59:50.682Z,51.156055
2022-09-09T13:00:50.760Z,51.156078
2022-09-09T13:01:50.758Z,51.156021
2022-09-09T13:02:50.878Z,51.156044
2022-09-09T13:03:50.636Z,51.156071
2022-09-09T13:04:50.668Z,51.156067
2022-09-09T13:05:50.918Z,51.156025
2022-09-09T13:06:50.759Z,51.156067
2022-09-09T13:07:50.682Z,51.156036
2022-09-09T13:08:51.142Z,51.156055
2022-09-09T13:09:51.141Z,51.156036
2022-09-09T13:12:18.803Z,51.156036
2022-09-09T13:12:21.174Z,51.156036
2022-09-09T13:13:22.673Z,51.156132
2022-09-09T13:14:21.876Z,51.156113
2022-09-09T13:15:20.700Z,51.156075
2022-09-09T13:16:20.880Z,51.156067
2022-09-09T13:17:24.956Z,51.156071
2022-09-09T13:18:20.740Z,51.156063
2022-09-09T13:19:20.769Z,51.156063
2022-09-09T13:20:20.930Z,51.156036
2022-09-09T13:21:20.791Z,51.156059
2022-09-09T13:22:20.689Z,51.156048
2022-09-09T13:23:20.697Z,51.156029
2022-09-09T13:24:20.620Z,51.156033
2022-09-09T13:25:20.841Z,51.155994
2022-09-09T13:26:20.610Z,51.156044
2022-09-09T13:27:20.683Z,51.156025
2022-09-09T13:28:20.727Z,51.156025
2022-09-09T13:29:22.818Z,51.156006
2022-09-09T13:30:21.174Z,51.156029
2022-09-09T13:31:21.180Z,51.156021
2022-09-09T13:32:20.558Z,51.155998
2022-09-09T13:33:20.572Z,51.156063
2022-09-09T13:34:20.926Z,51.156082
2022-09-09T13:35:20.833Z,51.156040
2022-09-09T13:36:20.445Z,51.156094
2022-09-09T13:37:21.278Z,51.156025
2022-09-09T13:38:22.839Z,51.156013
2022-09-09T13:39:20.493Z,51.156002
2022-09-09T13:40:20.472Z,51.156006
2022-09-09T13:41:21.021Z,51.156033
2022-09-09T13:42:20.642Z,51.156017
2022-09-09T13:43:20.490Z,51.156033
2022-09-09T13:44:20.439Z,51.156033
2022-09-09T13:45:20.468Z,51.156017
2022-09-09T13:46:20.370Z,51.156013
2022-09-09T13:47:21.376Z,51.156078
2022-09-09T13:48:20.608Z,51.156090
2022-09-09T13:49:20.559Z,51.156052
2022-09-09T13:50:23.488Z,51.156033
2022-09-09T13:51:20.966Z,51.156048
2022-09-09T13:52:20.457Z,51.156044
2022-09-09T13:53:20.318Z,51.156067
2022-09-09T13:54:21.306Z,51.156055
2022-09-09T13:55:21.207Z,51.156044
2022-09-09T13:56:20.320Z,51.155998
2022-09-09T13:57:20.310Z,51.156033
2022-09-09T13:58:20.673Z,51.156063
2022-09-09T13:59:21.354Z,51.156055
2022-09-09T14:00:20.300Z,51.156078
2022-09-09T14:01:20.403Z,51.156090
2022-09-09T14:02:20.295Z,51.156075
2022-09-09T14:03:21.119Z,51.156063
2022-09-09T14:04:20.185Z,51.156059
2022-09-09T14:05:20.884Z,51.156040
2022-09-09T14:06:20.345Z,51.156055
2022-09-09T14:07:20.153Z,51.156052
2022-09-09T14:08:20.221Z,51.156071
2022-09-09T14:09:20.145Z,51.156082
2022-09-09T14:10:20.181Z,51.156082
2022-09-09T14:11:20.134Z,51.156090
2022-09-09T14:12:20.131Z,51.156086
2022-09-09T14:13:20.113Z,51.156086
2022-09-09T14:14:20.151Z,51.156071
2022-09-09T14:15:22.281Z,51.156078
2022-09-09T14:16:20.405Z,51.156128
2022-09-09T14:17:20.134Z,51.156086
2022-09-09T14:18:20.256Z,51.156109
2022-09-09T14:19:20.167Z,51.156090
2022-09-09T14:20:20.469Z,51.156097
2022-09-09T14:21:20.357Z,51.156075
2022-09-09T14:22:20.072Z,51.156059
2022-09-09T14:23:20.012Z,51.156055
2022-09-09T14:24:20.176Z,51.156063
2022-09-09T14:25:20.095Z,51.156082
2022-09-09T14:26:20.388Z,51.156063
2022-09-09T14:27:20.050Z,51.156063
2022-09-09T14:28:25.883Z,51.156094
2022-09-09T14:29:22.028Z,51.156082
2022-09-09T14:30:19.939Z,51.156075
2022-09-09T14:31:20.073Z,51.156067
2022-09-09T14:32:20.072Z,51.156082
2022-09-09T14:33:20.170Z,51.156082
2022-09-09T14:34:19.877Z,51.156078
2022-09-09T14:35:19.912Z,51.156071
2022-09-09T14:36:19.973Z,51.156078
2022-09-09T14:37:19.915Z,51.156071
2022-09-09T14:38:19.849Z,51.156082
2022-09-09T14:39:19.953Z,51.156078
2022-09-09T14:40:20.106Z,51.156094
2022-09-09T14:41:19.905Z,51.156067
2022-09-09T14:42:19.868Z,51.156094
2022-09-09T14:43:19.869Z,51.156086
2022-09-09T14:44:19.842Z,51.156071
2022-09-09T14:45:20.907Z,51.156071
2022-09-09T14:46:21.305Z,51.156063
2022-09-09T14:47:19.809Z,51.156078
2022-09-09T14:48:21.149Z,51.156075
2022-09-09T14:49:20.594Z,51.156063
2022-09-09T14:50:19.734Z,51.156075
2022-09-09T14:51:19.743Z,51.156071
2022-09-09T14:52:19.780Z,51.156067
2022-09-09T14:53:19.758Z,51.156059
2022-09-09T14:54:19.753Z,51.156067
2022-09-09T14:55:19.738Z,51.156059
2022-09-09T14:56:19.710Z,51.156067
2022-09-09T14:57:19.712Z,51.156078
2022-09-09T14:58:19.656Z,51.156078
2022-09-09T14:59:19.801Z,51.156075
2022-09-09T15:00:20.140Z,51.156078
2022-09-09T15:01:19.723Z,51.156071
2022-09-09T15:14:56.103Z,51.156097
2022-09-09T15:19:54.023Z,51.156101
2022-09-09T15:21:19.500Z,51.156086
2022-09-09T15:21:55.208Z,51.156059
2022-09-09T15:29:18.060Z,51.156124
2022-09-09T15:29:46.551Z,51.156094
2022-09-09T15:52:19.855Z,51.156223
2022-09-09T15:52:46.224Z,51.156193
2022-09-09T16:09:44.782Z,51.156105
2022-09-09T16:10:44.319Z,51.156105
2022-09-09T16:11:43.018Z,51.156090
2022-09-09T16:12:44.219Z,51.156075
2022-09-09T16:13:42.370Z,51.156071
2022-09-09T16:14:43.556Z,51.156033
2022-09-09T16:15:43.598Z,51.156044
2022-09-09T16:16:50.393Z,51.156036
2022-09-09T16:17:43.771Z,51.156052
2022-09-09T16:18:45.766Z,51.156055
2022-09-09T16:19:43.582Z,51.156055
2022-09-09T16:20:42.464Z,51.156048
2022-09-09T16:21:42.470Z,51.156055
2022-09-09T16:22:43.134Z,51.156055
2022-09-09T16:23:44.160Z,51.156052
2022-09-09T16:25:15.795Z,51.156063
2022-09-09T16:25:46.353Z,51.156055
2022-09-09T16:26:45.565Z,51.156040
2022-09-09T16:28:16.817Z,51.155994
2022-09-09T16:28:51.055Z,51.156036
2022-09-09T16:30:15.162Z,51.156025
2022-09-09T16:31:09.170Z,51.156082
2022-09-09T16:31:51.349Z,51.156033
2022-09-09T16:32:42.430Z,51.156044
2022-09-09T16:37:45.051Z,51.156166
2022-09-09T16:38:45.550Z,51.156143
2022-09-09T16:40:22.826Z,51.156116
2022-09-09T16:40:47.305Z,51.156101
2022-09-09T16:41:52.510Z,51.156090
2022-09-09T16:42:45.393Z,51.156086
2022-09-09T16:44:17.476Z,51.156082
2022-09-09T16:44:45.236Z,51.156086
2022-09-09T16:45:44.432Z,51.156097
2022-09-09T16:46:45.642Z,51.156090
2022-09-09T16:47:44.394Z,51.156097
2022-09-09T16:48:44.312Z,51.156116
2022-09-09T16:49:46.105Z,51.156109
2022-09-09T16:50:44.246Z,51.156105
2022-09-09T16:51:44.482Z,51.156090
2022-09-09T16:52:50.539Z,51.156094
2022-09-09T16:53:51.935Z,51.156044
2022-09-09T16:54:45.310Z,51.156090
2022-09-09T16:55:44.226Z,51.156105
2022-09-09T16:56:45.916Z,51.156090
2022-09-09T16:57:44.186Z,51.156086
2022-09-09T16:58:46.023Z,51.156082
2022-09-09T16:59:44.218Z,51.156086
2022-09-09T17:00:46.039Z,51.156094
2022-09-09T17:01:44.513Z,51.156071
2022-09-09T17:02:44.625Z,51.156078
2022-09-09T17:03:44.726Z,51.156075
2022-09-09T17:04:46.531Z,51.156075
2022-09-09T17:05:46.845Z,51.156067
2022-09-09T17:06:44.172Z,51.156075
2022-09-09T17:07:44.117Z,51.156086
2022-09-09T17:08:44.050Z,51.156105
2022-09-09T17:09:44.276Z,51.156086
2022-09-09T17:10:44.181Z,51.156101
2022-09-09T17:11:44.165Z,51.156082
2022-09-09T17:12:44.324Z,51.156067
2022-09-09T17:13:46.860Z,51.156075
2022-09-09T17:14:43.978Z,51.156067
2022-09-09T17:15:44.912Z,51.156052
2022-09-09T17:16:45.177Z,51.156055
2022-09-09T17:17:44.308Z,51.156052
2022-09-09T17:18:43.962Z,51.156075
2022-09-09T17:19:44.621Z,51.156063
2022-09-09T17:20:46.713Z,51.156094
2022-09-09T17:22:12.492Z,51.156094
2022-09-09T17:22:46.500Z,51.156082
2022-09-09T17:23:45.120Z,51.156082
2022-09-09T17:24:44.069Z,51.156059
2022-09-09T17:25:44.484Z,51.156078
2022-09-09T17:26:45.462Z,51.156078
2022-09-09T17:27:46.254Z,51.156090
2022-09-09T17:28:46.978Z,51.156101
2022-09-09T17:30:01.518Z,51.156101
2022-09-09T17:31:22.044Z,51.156097
2022-09-09T17:31:45.933Z,51.156097
2022-09-09T17:32:45.121Z,51.156105
2022-09-09T17:33:43.977Z,51.156086
2022-09-09T17:34:56.910Z,51.156101
2022-09-09T17:35:44.006Z,51.156063
2022-09-09T17:36:43.969Z,51.156097
2022-09-09T17:37:43.824Z,51.156090
2022-09-09T17:38:44.303Z,51.156059
2022-09-09T17:39:44.525Z,51.156090
2022-09-09T17:40:43.870Z,51.156097
2022-09-09T17:41:43.833Z,51.156082
2022-09-09T17:42:43.809Z,51.156082
2022-09-09T17:43:59.635Z,51.156094
2022-09-09T17:44:46.927Z,51.156071
2022-09-09T17:45:43.681Z,51.156055
2022-09-09T17:46:45.269Z,51.156113
2022-09-09T17:48:07.106Z,51.156090
2022-09-09T17:49:04.570Z,51.156116
2022-09-09T17:49:54.513Z,51.156174
2022-09-09T17:50:44.824Z,51.156158
2022-09-09T17:51:47.167Z,51.156132
2022-09-09T17:52:50.609Z,51.156094
2022-09-09T17:53:45.679Z,51.156067
2022-09-09T17:54:53.126Z,51.156055